Time;durP1;ratioP1;P1;durP2;ratioP2;P2;SDS_P1;SDS_P2;PMS_P1;PMS_P2;Temp;Humidity;BMP_temperature;BMP_pressure;BME280_temperature;BME280_humidity;BME280_pressure;Samples;Min_cycle;Max_cycle;Signal;HPM_P1;HPM_P2
2023/09/25 00:02:15;;;;;;;3.27;2.43;;;12.20;99.90;;;;;;4996248;28;20246;-70
2023/09/25 00:04:41;;;;;;;4.63;2.90;;;12.20;99.90;;;;;;4996139;28;20652;-70
2023/09/25 00:07:06;;;;;;;4.60;2.60;;;12.20;99.90;;;;;;4993689;28;20686;-70
2023/09/25 00:09:32;;;;;;;4.50;3.10;;;12.20;99.90;;;;;;4992192;28;20165;-71
2023/09/25 00:11:57;;;;;;;4.63;2.97;;;12.20;99.90;;;;;;5008032;28;20168;-70
2023/09/25 00:14:23;;;;;;;5.80;3.43;;;12.20;99.90;;;;;;5012891;28;20168;-70
2023/09/25 00:16:48;;;;;;;3.20;2.63;;;12.00;99.90;;;;;;5012812;28;20215;-70
2023/09/25 00:19:15;;;;;;;4.57;3.00;;;12.00;99.90;;;;;;5012795;28;20199;-70
2023/09/25 00:21:41;;;;;;;2.83;2.57;;;12.00;99.90;;;;;;5000702;28;20187;-70
2023/09/25 00:24:07;;;;;;;2.93;2.50;;;12.10;99.90;;;;;;4993217;28;20408;-70
2023/09/25 00:26:33;;;;;;;3.53;2.77;;;12.10;99.90;;;;;;4993153;28;20283;-70
2023/09/25 00:28:59;;;;;;;3.07;2.37;;;12.10;99.90;;;;;;4991452;28;20689;-71
2023/09/25 00:31:24;;;;;;;3.27;2.90;;;12.10;99.90;;;;;;5002744;28;20422;-71
2023/09/25 00:33:50;;;;;;;3.47;2.70;;;12.10;99.90;;;;;;5012487;28;20177;-70
2023/09/25 00:36:15;;;;;;;4.43;3.13;;;12.10;99.90;;;;;;5012883;28;20202;-71
2023/09/25 00:38:41;;;;;;;3.13;2.47;;;12.10;99.90;;;;;;5012470;28;20199;-71
2023/09/25 00:41:06;;;;;;;4.77;3.30;;;12.10;99.90;;;;;;5005310;28;20172;-71
2023/09/25 00:43:32;;;;;;;4.10;2.83;;;12.00;99.90;;;;;;4993266;28;20179;-69
2023/09/25 00:45:59;;;;;;;6.50;2.40;;;12.00;99.90;;;;;;4992921;28;20192;-70
2023/09/25 00:48:29;;;;;;;3.10;2.70;;;11.90;99.90;;;;;;4992541;28;20267;-69
2023/09/25 00:50:57;;;;;;;5.30;2.63;;;12.00;99.90;;;;;;4998545;28;20418;-70
2023/09/25 00:53:26;;;;;;;3.03;2.60;;;12.00;99.90;;;;;;5012310;28;20910;-69
2023/09/25 00:55:53;;;;;;;3.67;2.60;;;11.90;99.90;;;;;;5012218;28;20418;-69
2023/09/25 00:58:19;;;;;;;4.93;3.23;;;11.90;99.90;;;;;;5014808;28;20486;-70
2023/09/25 01:00:46;;;;;;;3.50;2.40;;;11.90;99.90;;;;;;5012143;28;20411;-69
2023/09/25 01:03:12;;;;;;;3.30;2.50;;;11.90;99.90;;;;;;5004351;28;20781;-69
2023/09/25 01:05:39;;;;;;;3.80;2.73;;;11.80;99.90;;;;;;5016312;28;20469;-70
2023/09/25 01:08:06;;;;;;;2.93;2.57;;;11.80;99.90;;;;;;5016071;28;20422;-70
2023/09/25 01:10:32;;;;;;;3.80;2.80;;;11.70;99.90;;;;;;5014128;28;20414;-69
2023/09/25 01:13:00;;;;;;;3.23;2.67;;;11.70;99.90;;;;;;4996406;28;20414;-70
2023/09/25 01:15:27;;;;;;;4.77;2.97;;;11.60;99.90;;;;;;4996789;28;20465;-68
2023/09/25 01:17:52;;;;;;;4.90;3.00;;;11.70;99.90;;;;;;4996555;28;20569;-69
2023/09/25 01:20:19;;;;;;;4.50;3.00;;;11.70;99.90;;;;;;4996887;28;20494;-70
2023/09/25 01:22:48;;;;;;;4.50;2.60;;;11.60;99.90;;;;;;5015868;28;20174;-69
2023/09/25 01:25:15;;;;;;;5.30;2.47;;;11.60;99.90;;;;;;5015668;28;20785;-70
2023/09/25 01:27:42;;;;;;;2.70;2.50;;;11.60;99.90;;;;;;5015959;28;20430;-70
2023/09/25 01:30:11;;;;;;;3.90;2.53;;;11.70;99.90;;;;;;5016103;28;20406;-70
2023/09/25 01:32:38;;;;;;;3.93;2.60;;;11.70;99.90;;;;;;4997121;28;20510;-69
2023/09/25 01:35:10;;;;;;;3.40;2.67;;;11.80;99.90;;;;;;4996286;28;20451;-69
2023/09/25 01:37:36;;;;;;;4.67;2.40;;;11.80;99.90;;;;;;4996319;28;20483;-70
2023/09/25 01:40:05;;;;;;;3.17;2.80;;;11.80;99.90;;;;;;4997543;28;20413;-70
2023/09/25 01:42:30;;;;;;;3.47;2.90;;;11.80;99.90;;;;;;5014823;28;20185;-70
2023/09/25 01:44:56;;;;;;;4.00;3.03;;;11.70;99.90;;;;;;5016679;28;20442;-70
2023/09/25 01:47:21;;;;;;;4.80;2.67;;;11.60;99.90;;;;;;5015405;28;20286;-70
2023/09/25 01:49:47;;;;;;;4.53;2.60;;;11.50;99.90;;;;;;5016028;28;20207;-69
2023/09/25 01:52:14;;;;;;;3.03;2.23;;;11.40;99.90;;;;;;5000255;28;20175;-70
2023/09/25 01:54:39;;;;;;;4.10;3.20;;;11.20;99.90;;;;;;4995941;28;20216;-69
2023/09/25 01:57:05;;;;;;;3.23;2.87;;;11.30;99.90;;;;;;4998253;28;20910;-69
2023/09/25 01:59:31;;;;;;;6.33;3.00;;;11.20;99.90;;;;;;4995760;28;20536;-70
2023/09/25 02:01:57;;;;;;;3.50;2.47;;;11.20;99.90;;;;;;5008597;28;20793;-70
2023/09/25 02:04:23;;;;;;;3.03;2.73;;;11.20;99.90;;;;;;5015240;28;20197;-70
2023/09/25 02:06:48;;;;;;;3.27;2.73;;;11.20;99.90;;;;;;5015254;28;20500;-70
2023/09/25 02:09:14;;;;;;;3.53;3.10;;;11.30;99.90;;;;;;5014927;28;20651;-69
2023/09/25 02:11:39;;;;;;;2.60;2.40;;;11.40;99.90;;;;;;5004419;28;20176;-70
2023/09/25 02:14:05;;;;;;;3.07;2.43;;;11.40;99.90;;;;;;4994399;28;20608;-70
2023/09/25 02:16:30;;;;;;;2.47;2.27;;;11.40;99.90;;;;;;4995642;28;20248;-70
2023/09/25 02:18:56;;;;;;;4.70;2.87;;;11.30;99.90;;;;;;4995528;28;20244;-70
2023/09/25 02:21:22;;;;;;;4.37;3.40;;;11.30;99.90;;;;;;5003057;28;20179;-70
2023/09/25 02:23:48;;;;;;;5.33;2.20;;;11.30;99.90;;;;;;5014418;28;20498;-70
2023/09/25 02:26:13;;;;;;;3.03;2.73;;;11.40;99.90;;;;;;5014527;28;20210;-70
2023/09/25 02:28:39;;;;;;;3.77;2.60;;;11.40;99.90;;;;;;5010067;28;20210;-70
2023/09/25 02:31:05;;;;;;;4.60;3.10;;;11.30;99.90;;;;;;4999090;28;20211;-71
2023/09/25 02:33:30;;;;;;;8.33;3.13;;;11.30;99.90;;;;;;5013698;28;20222;-70
2023/09/25 02:36:06;;;;;;;3.80;2.77;;;11.20;99.90;;;;;;5014250;28;20190;-70
2023/09/25 02:38:31;;;;;;;2.80;2.50;;;11.20;99.90;;;;;;5014095;28;20281;-69
2023/09/25 02:40:57;;;;;;;3.77;2.93;;;11.10;99.90;;;;;;5009921;28;21006;-69
2023/09/25 02:43:23;;;;;;;5.50;2.47;;;11.10;99.90;;;;;;4994608;28;20317;-69
2023/09/25 02:45:48;;;;;;;3.40;2.33;;;11.00;99.90;;;;;;4994788;28;20219;-69
2023/09/25 02:48:14;;;;;;;3.10;2.80;;;11.00;99.90;;;;;;4994213;28;20235;-69
2023/09/25 02:50:39;;;;;;;3.10;2.73;;;11.00;99.90;;;;;;4996023;28;20177;-69
2023/09/25 02:53:06;;;;;;;3.53;2.60;;;10.90;99.90;;;;;;5014535;28;20267;-69
2023/09/25 02:55:32;;;;;;;4.23;2.60;;;10.80;99.90;;;;;;5014315;28;20480;-69
2023/09/25 02:57:58;;;;;;;5.73;2.50;;;10.80;99.90;;;;;;5014023;28;20427;-69
2023/09/25 03:00:24;;;;;;;3.70;2.63;;;10.70;99.90;;;;;;5014350;28;20271;-69
2023/09/25 03:02:49;;;;;;;3.60;3.07;;;10.70;99.90;;;;;;4995181;28;20424;-69
2023/09/25 03:05:15;;;;;;;3.63;2.87;;;10.60;99.90;;;;;;5008469;28;20225;-70
2023/09/25 03:07:40;;;;;;;3.13;2.63;;;10.60;99.90;;;;;;4997416;28;20213;-70
2023/09/25 03:10:07;;;;;;;4.27;3.10;;;10.70;99.90;;;;;;4994365;28;20175;-69
2023/09/25 03:12:33;;;;;;;3.43;2.40;;;10.60;99.90;;;;;;5011424;28;20184;-69
2023/09/25 03:14:59;;;;;;;5.10;3.00;;;10.80;99.90;;;;;;5012798;28;20794;-69
2023/09/25 03:17:24;;;;;;;3.73;2.60;;;10.80;99.90;;;;;;5013959;28;20333;-70
2023/09/25 03:19:51;;;;;;;2.60;2.00;;;10.80;99.90;;;;;;5013482;28;20545;-70
2023/09/25 03:22:17;;;;;;;6.17;3.37;;;10.80;99.90;;;;;;4999245;28;20176;-70
2023/09/25 03:24:43;;;;;;;2.83;2.50;;;10.80;99.90;;;;;;4994247;28;20880;-70
2023/09/25 03:27:08;;;;;;;2.40;2.20;;;10.70;99.90;;;;;;4993995;28;20685;-70
2023/09/25 03:29:34;;;;;;;4.60;3.17;;;10.70;99.90;;;;;;4994222;28;20651;-70
2023/09/25 03:31:59;;;;;;;4.80;2.70;;;10.60;99.90;;;;;;5005910;28;20183;-70
2023/09/25 03:34:25;;;;;;;3.50;2.63;;;10.50;99.90;;;;;;5013774;28;20266;-70
2023/09/25 03:36:50;;;;;;;4.90;2.30;;;10.50;99.90;;;;;;5013388;28;20192;-70
2023/09/25 03:39:17;;;;;;;3.13;2.33;;;10.50;99.90;;;;;;5013926;28;20180;-70
2023/09/25 03:41:43;;;;;;;3.90;2.47;;;10.50;99.90;;;;;;5003702;28;20223;-70
2023/09/25 03:44:08;;;;;;;4.20;2.70;;;10.50;99.90;;;;;;4993834;28;20409;-70
2023/09/25 03:46:34;;;;;;;3.57;2.23;;;10.40;99.90;;;;;;4994187;28;20176;-70
2023/09/25 03:49:05;;;;;;;3.70;2.80;;;10.40;99.90;;;;;;4993834;28;20212;-69
2023/09/25 03:51:34;;;;;;;3.57;2.27;;;10.40;99.90;;;;;;5001853;28;20169;-71
2023/09/25 03:54:00;;;;;;;5.00;2.20;;;10.40;99.90;;;;;;5013366;28;20404;-70
2023/09/25 03:56:27;;;;;;;4.20;2.67;;;10.40;99.90;;;;;;5013749;28;20461;-69
2023/09/25 03:58:52;;;;;;;2.57;2.37;;;10.20;99.90;;;;;;5013424;28;20189;-70
2023/09/25 04:01:18;;;;;;;2.80;2.60;;;10.30;99.90;;;;;;5007428;28;20414;-70
2023/09/25 04:03:44;;;;;;;2.90;2.60;;;10.30;99.90;;;;;;4994145;28;20169;-71
2023/09/25 04:06:09;;;;;;;2.97;2.70;;;10.20;99.90;;;;;;4996992;28;20651;-70
2023/09/25 04:08:35;;;;;;;2.70;2.40;;;10.20;99.90;;;;;;4994309;28;20274;-70
2023/09/25 04:11:01;;;;;;;5.60;2.63;;;10.40;99.90;;;;;;4997005;28;20172;-70
2023/09/25 04:13:27;;;;;;;3.07;2.60;;;10.50;99.90;;;;;;5013350;28;20175;-69
2023/09/25 04:15:53;;;;;;;3.00;2.50;;;10.50;99.90;;;;;;5013254;28;20482;-70
2023/09/25 04:18:19;;;;;;;3.23;2.93;;;10.50;99.90;;;;;;5013206;28;20195;-70
2023/09/25 04:20:45;;;;;;;3.57;2.53;;;10.40;99.90;;;;;;5012104;28;20402;-70
2023/09/25 04:23:12;;;;;;;5.07;2.77;;;10.30;99.90;;;;;;4993516;28;20219;-71
2023/09/25 04:25:37;;;;;;;3.77;2.77;;;10.30;99.90;;;;;;4993267;28;20494;-70
2023/09/25 04:28:05;;;;;;;4.37;3.00;;;10.30;99.90;;;;;;4993401;28;20480;-69
2023/09/25 04:30:31;;;;;;;3.07;2.77;;;10.40;99.90;;;;;;4993444;28;20180;-69
2023/09/25 04:32:57;;;;;;;4.30;2.80;;;10.30;99.90;;;;;;5011232;28;20411;-70
2023/09/25 04:35:23;;;;;;;3.63;2.87;;;10.30;99.90;;;;;;5013115;28;20461;-69
2023/09/25 04:37:50;;;;;;;2.40;1.93;;;10.30;99.90;;;;;;5012977;28;20194;-68
2023/09/25 04:40:30;;;;;;;3.43;3.07;;;10.30;99.90;;;;;;5005174;28;20468;-70
2023/09/25 04:42:56;;;;;;;4.43;3.07;;;10.30;99.90;;;;;;4984147;28;20408;-68
2023/09/25 04:45:23;;;;;;;3.10;2.70;;;10.30;99.90;;;;;;4983878;28;20537;-70
2023/09/25 04:47:52;;;;;;;3.30;2.67;;;10.20;99.90;;;;;;4983403;28;20901;-69
2023/09/25 04:50:22;;;;;;;3.43;2.43;;;10.20;99.90;;;;;;4987893;28;20886;-70
2023/09/25 04:52:51;;;;;;;3.53;2.50;;;10.20;99.90;;;;;;5009967;28;20411;-69
2023/09/25 04:55:16;;;;;;;3.37;3.07;;;10.20;99.90;;;;;;5012264;28;20770;-70
2023/09/25 04:57:44;;;;;;;4.30;2.93;;;10.20;99.90;;;;;;5010817;28;20442;-69
2023/09/25 05:00:17;;;;;;;3.70;3.00;;;10.30;99.90;;;;;;5012251;28;20251;-70
2023/09/25 05:02:45;;;;;;;4.70;2.70;;;10.20;99.90;;;;;;4995889;28;20498;-70
2023/09/25 05:05:12;;;;;;;4.00;3.20;;;10.30;99.90;;;;;;4992417;28;20501;-70
2023/09/25 05:07:38;;;;;;;4.83;3.17;;;10.30;99.90;;;;;;4992972;28;20642;-69
2023/09/25 05:10:04;;;;;;;3.73;3.33;;;10.40;99.90;;;;;;5004546;28;20494;-69
2023/09/25 05:12:30;;;;;;;5.10;3.67;;;10.40;99.90;;;;;;4997604;28;20511;-69
2023/09/25 05:14:56;;;;;;;4.50;3.60;;;10.40;99.90;;;;;;4991935;28;20409;-69
2023/09/25 05:17:21;;;;;;;3.00;2.70;;;10.50;99.90;;;;;;4992454;28;20434;-71
2023/09/25 05:19:47;;;;;;;4.57;2.97;;;10.50;99.90;;;;;;4992653;28;20165;-69
2023/09/25 05:22:13;;;;;;;4.80;3.10;;;10.50;99.90;;;;;;5004782;28;20168;-70
2023/09/25 05:24:38;;;;;;;4.60;2.87;;;10.50;99.90;;;;;;5010888;28;20206;-70
2023/09/25 05:27:04;;;;;;;3.83;3.03;;;10.50;99.90;;;;;;5012898;28;20249;-69
2023/09/25 05:29:29;;;;;;;5.80;3.50;;;10.50;99.90;;;;;;5012305;28;20271;-70
2023/09/25 05:31:55;;;;;;;4.27;2.73;;;10.50;99.90;;;;;;5002495;28;20246;-69
2023/09/25 05:34:20;;;;;;;3.30;2.53;;;10.50;99.90;;;;;;5004963;28;20671;-69
2023/09/25 05:36:46;;;;;;;4.80;3.10;;;10.50;99.90;;;;;;5010742;28;20230;-69
2023/09/25 05:39:11;;;;;;;6.00;2.90;;;10.50;99.90;;;;;;5010574;28;20272;-68
2023/09/25 05:41:37;;;;;;;4.20;3.40;;;10.50;99.90;;;;;;5012181;28;20324;-69
2023/09/25 05:44:03;;;;;;;4.70;3.00;;;10.40;99.90;;;;;;5014099;28;20161;-69
2023/09/25 05:46:28;;;;;;;4.07;3.53;;;10.50;99.90;;;;;;5015779;28;20194;-70
2023/09/25 05:48:54;;;;;;;4.43;3.27;;;10.50;99.90;;;;;;5016218;28;20204;-70
2023/09/25 05:51:20;;;;;;;6.50;3.50;;;10.50;99.90;;;;;;5011273;28;20558;-70
2023/09/25 05:53:46;;;;;;;4.00;2.90;;;10.50;99.90;;;;;;4996393;28;20202;-69
2023/09/25 05:56:11;;;;;;;5.00;3.07;;;10.40;99.90;;;;;;4996300;28;20543;-68
2023/09/25 05:58:37;;;;;;;3.60;3.00;;;10.50;99.90;;;;;;4996130;28;20428;-68
2023/09/25 06:01:03;;;;;;;4.53;3.13;;;10.50;99.90;;;;;;4997758;28;20172;-70
2023/09/25 06:03:28;;;;;;;4.00;2.77;;;10.50;99.90;;;;;;5015725;28;20546;-70
2023/09/25 06:05:54;;;;;;;3.93;2.60;;;10.50;99.90;;;;;;5015709;28;20195;-70
2023/09/25 06:08:19;;;;;;;7.97;4.27;;;10.50;99.90;;;;;;5015028;28;20196;-70
2023/09/25 06:10:45;;;;;;;6.63;3.10;;;10.50;99.90;;;;;;5012131;28;20180;-70
2023/09/25 06:13:11;;;;;;;6.77;5.20;;;10.60;99.90;;;;;;4995665;28;20540;-69
2023/09/25 06:15:37;;;;;;;5.80;3.70;;;10.70;99.90;;;;;;4988532;28;20458;-70
2023/09/25 06:18:09;;;;;;;3.77;3.17;;;10.80;99.90;;;;;;4994278;28;20185;-69
2023/09/25 06:20:39;;;;;;;5.60;3.20;;;10.90;99.90;;;;;;4994192;28;20393;-70
2023/09/25 06:23:05;;;;;;;5.70;3.17;;;10.90;99.90;;;;;;4991395;28;20833;-72
2023/09/25 06:25:31;;;;;;;7.10;4.03;;;10.90;99.90;;;;;;4989634;28;20425;-72
2023/09/25 06:27:57;;;;;;;2.97;2.53;;;11.00;99.90;;;;;;4990272;28;20510;-72
2023/09/25 06:30:22;;;;;;;5.17;2.90;;;11.10;99.90;;;;;;4990435;28;20872;-72
2023/09/25 06:32:48;;;;;;;5.00;2.83;;;11.10;99.90;;;;;;5004902;28;20679;-70
2023/09/25 06:35:14;;;;;;;3.07;2.77;;;11.20;99.90;;;;;;5008377;28;20203;-70
2023/09/25 06:37:39;;;;;;;3.33;3.03;;;11.20;99.90;;;;;;5008744;28;20423;-70
2023/09/25 06:40:09;;;;;;;6.27;3.27;;;11.30;99.90;;;;;;5008011;28;20647;-70
2023/09/25 06:42:36;;;;;;;4.03;3.47;;;11.40;99.90;;;;;;4995154;28;20211;-69
2023/09/25 06:45:03;;;;;;;3.80;3.20;;;11.40;99.90;;;;;;4989356;28;20416;-69
2023/09/25 06:47:28;;;;;;;3.67;3.03;;;11.40;99.90;;;;;;4989160;28;20823;-70
2023/09/25 06:49:54;;;;;;;3.87;3.37;;;11.60;99.90;;;;;;4988711;28;20409;-70
2023/09/25 06:52:20;;;;;;;5.23;2.90;;;11.60;99.90;;;;;;4998507;28;20207;-70
2023/09/25 06:54:45;;;;;;;4.17;2.80;;;11.80;99.90;;;;;;5008025;28;20646;-70
2023/09/25 06:57:11;;;;;;;4.00;3.40;;;11.80;99.90;;;;;;5008327;28;20210;-71
2023/09/25 06:59:37;;;;;;;5.10;3.67;;;11.90;99.90;;;;;;5008882;28;20658;-70
2023/09/25 07:02:03;;;;;;;9.07;4.30;;;12.10;99.90;;;;;;4997080;28;20173;-69
2023/09/25 07:04:28;;;;;;;4.90;3.67;;;12.60;99.90;;;;;;4988285;28;20396;-70
2023/09/25 07:06:54;;;;;;;9.93;4.03;;;12.90;99.90;;;;;;4988765;28;20551;-70
2023/09/25 07:09:21;;;;;;;8.43;4.00;;;13.10;99.90;;;;;;4989603;28;20505;-71
2023/09/25 07:11:47;;;;;;;6.27;3.23;;;13.10;99.90;;;;;;4995161;28;20478;-69
2023/09/25 07:14:13;;;;;;;4.30;3.50;;;13.10;99.90;;;;;;5008235;28;20416;-72
2023/09/25 07:16:38;;;;;;;5.03;4.17;;;13.20;99.90;;;;;;4989293;28;20207;-70
2023/09/25 07:19:04;;;;;;;5.00;3.63;;;13.30;99.90;;;;;;4991917;28;20721;-69
2023/09/25 07:21:29;;;;;;;4.93;3.80;;;13.40;99.90;;;;;;5002467;28;20173;-68
2023/09/25 07:23:55;;;;;;;3.70;3.20;;;13.50;99.90;;;;;;4988804;28;20237;-71
2023/09/25 07:26:20;;;;;;;4.10;3.43;;;13.60;99.90;;;;;;4988309;28;20236;-71
2023/09/25 07:28:49;;;;;;;4.63;4.13;;;13.60;99.90;;;;;;4988021;28;20205;-69
2023/09/25 07:31:23;;;;;;;3.00;2.70;;;13.70;99.90;;;;;;4990696;28;20214;-71
2023/09/25 07:33:55;;;;;;;4.30;3.57;;;13.80;99.90;;;;;;5008444;28;20982;-70
2023/09/25 07:36:21;;;;;;;5.43;4.20;;;14.00;99.90;;;;;;5004399;28;20538;-69
2023/09/25 07:38:47;;;;;;;5.23;4.73;;;13.90;99.90;;;;;;5004334;28;20480;-70
2023/09/25 07:41:13;;;;;;;5.50;3.93;;;13.90;99.90;;;;;;5005283;28;20839;-70
2023/09/25 07:43:39;;;;;;;5.87;3.90;;;13.80;99.90;;;;;;4987649;28;20411;-70
2023/09/25 07:46:05;;;;;;;5.40;4.90;;;14.00;99.90;;;;;;4987226;28;20315;-70
2023/09/25 07:48:31;;;;;;;7.00;5.30;;;14.20;99.90;;;;;;4988261;28;20455;-70
2023/09/25 07:50:58;;;;;;;9.13;6.30;;;14.30;99.90;;;;;;4988486;28;20422;-70
2023/09/25 07:53:24;;;;;;;6.60;5.33;;;14.30;99.90;;;;;;5007942;28;20175;-70
2023/09/25 07:55:53;;;;;;;8.73;5.60;;;14.50;99.90;;;;;;5007110;28;20511;-70
2023/09/25 07:58:19;;;;;;;7.43;6.00;;;14.60;99.90;;;;;;5006707;28;20444;-70
2023/09/25 08:00:46;;;;;;;10.30;5.80;;;14.60;99.90;;;;;;5008119;28;20418;-70
2023/09/25 08:03:15;;;;;;;9.17;6.03;;;14.70;99.90;;;;;;4988741;28;20675;-70
2023/09/25 08:05:42;;;;;;;6.73;6.03;;;14.30;99.90;;;;;;4988110;28;20409;-71
2023/09/25 08:08:11;;;;;;;7.80;5.70;;;14.10;99.90;;;;;;4991485;28;20521;-69
2023/09/25 08:10:45;;;;;;;7.60;5.70;;;14.00;99.90;;;;;;5006795;28;20414;-70
2023/09/25 08:13:11;;;;;;;8.03;5.47;;;14.30;99.90;;;;;;4988918;28;20864;-70
2023/09/25 08:15:37;;;;;;;8.43;6.50;;;14.30;99.90;;;;;;4986365;28;20459;-70
2023/09/25 08:18:03;;;;;;;9.23;6.13;;;14.30;99.90;;;;;;4987342;28;20181;-70
2023/09/25 08:20:28;;;;;;;6.47;5.40;;;14.20;99.90;;;;;;4987677;28;20428;-70
2023/09/25 08:22:55;;;;;;;5.50;5.00;;;14.20;99.90;;;;;;5002060;28;20232;-69
2023/09/25 08:25:21;;;;;;;7.43;5.90;;;14.20;99.90;;;;;;5004382;28;20274;-70
2023/09/25 08:27:48;;;;;;;5.57;5.03;;;14.20;99.90;;;;;;5006793;28;20510;-70
2023/09/25 08:30:18;;;;;;;7.93;5.60;;;14.30;99.90;;;;;;5007214;28;20552;-70
2023/09/25 08:32:45;;;;;;;5.73;4.83;;;14.50;99.90;;;;;;4993979;28;20409;-71
2023/09/25 08:35:10;;;;;;;6.07;4.47;;;14.70;99.90;;;;;;4987232;28;20418;-71
2023/09/25 08:37:39;;;;;;;9.20;4.00;;;14.90;99.90;;;;;;4987049;28;21078;-70
2023/09/25 08:40:06;;;;;;;6.77;4.27;;;15.00;99.90;;;;;;4987075;28;20177;-71
2023/09/25 08:42:32;;;;;;;6.60;4.30;;;15.10;99.90;;;;;;4999329;28;20849;-71
2023/09/25 08:45:02;;;;;;;5.63;4.20;;;15.20;99.90;;;;;;5006367;28;20526;-71
2023/09/25 08:47:30;;;;;;;7.00;4.40;;;15.30;99.90;;;;;;5005715;28;20219;-71
2023/09/25 08:49:56;;;;;;;6.37;4.37;;;15.50;99.90;;;;;;5006905;28;20420;-70
2023/09/25 08:52:22;;;;;;;4.17;3.77;;;15.60;99.90;;;;;;4996283;28;20414;-70
2023/09/25 08:54:50;;;;;;;5.03;3.93;;;15.70;99.90;;;;;;5005930;28;20176;-68
2023/09/25 08:57:16;;;;;;;5.60;4.00;;;15.80;99.90;;;;;;5006006;28;21289;-69
2023/09/25 08:59:45;;;;;;;5.90;3.83;;;16.00;99.90;;;;;;5006529;28;20417;-70
2023/09/25 09:02:12;;;;;;;4.20;3.20;;;16.10;99.90;;;;;;4996937;28;20573;-70
2023/09/25 09:04:38;;;;;;;5.10;3.47;;;16.10;99.90;;;;;;4987825;28;20412;-70
2023/09/25 09:07:05;;;;;;;6.10;3.93;;;16.30;99.90;;;;;;4986713;28;20718;-70
2023/09/25 09:09:32;;;;;;;7.47;5.50;;;16.40;99.90;;;;;;4986640;28;20738;-70
2023/09/25 09:11:58;;;;;;;4.37;3.60;;;16.40;99.90;;;;;;4993899;28;20463;-70
2023/09/25 09:14:40;;;;;;;5.53;3.37;;;16.30;99.90;;;;;;5006330;28;20411;-70
2023/09/25 09:17:07;;;;;;;4.47;3.63;;;16.40;99.90;;;;;;4999900;28;20451;-70
2023/09/25 09:19:45;;;;;;;7.00;3.70;;;16.60;99.90;;;;;;5003851;28;20411;-70
2023/09/25 09:22:12;;;;;;;4.37;3.80;;;16.50;99.90;;;;;;5001701;28;20419;-71
2023/09/25 09:24:39;;;;;;;5.50;3.90;;;16.60;99.90;;;;;;4990453;28;20412;-69
2023/09/25 09:27:08;;;;;;;5.53;3.93;;;16.80;99.90;;;;;;4990108;28;20415;-71
2023/09/25 09:29:45;;;;;;;4.00;3.60;;;17.00;99.90;;;;;;4990129;28;20451;-71
2023/09/25 09:32:11;;;;;;;6.03;3.83;;;17.20;99.90;;;;;;4998238;28;20399;-70
2023/09/25 09:34:41;;;;;;;4.80;3.63;;;17.30;99.90;;;;;;5009976;28;20423;-71
2023/09/25 09:37:10;;;;;;;7.03;3.63;;;17.40;99.90;;;;;;5007475;28;20492;-70
2023/09/25 09:39:36;;;;;;;5.50;3.50;;;17.30;99.90;;;;;;5010731;28;20506;-70
2023/09/25 09:42:05;;;;;;;3.33;3.03;;;17.50;99.90;;;;;;5004571;28;20450;-70
2023/09/25 09:44:31;;;;;;;5.50;3.50;;;17.50;99.90;;;;;;4993905;28;20408;-69
2023/09/25 09:46:57;;;;;;;5.30;2.93;;;17.70;99.90;;;;;;4994495;28;20403;-70
2023/09/25 09:49:24;;;;;;;4.57;3.27;;;17.70;99.90;;;;;;4994859;28;20817;-70
2023/09/25 09:51:51;;;;;;;3.30;2.70;;;17.60;99.90;;;;;;4999529;28;20207;-70
2023/09/25 09:54:19;;;;;;;4.10;3.07;;;17.80;99.90;;;;;;5014290;28;20406;-69
2023/09/25 09:56:49;;;;;;;4.20;3.27;;;17.90;99.90;;;;;;5015084;28;20446;-70
2023/09/25 09:59:16;;;;;;;3.37;3.07;;;18.00;99.90;;;;;;5008731;28;20415;-71
2023/09/25 10:01:44;;;;;;;6.00;3.13;;;18.00;99.90;;;;;;5003000;28;20449;-71
2023/09/25 10:04:10;;;;;;;3.30;2.90;;;18.30;99.90;;;;;;5014153;28;20430;-71
2023/09/25 10:06:46;;;;;;;4.77;3.10;;;18.30;99.90;;;;;;5014088;28;20411;-69
2023/09/25 10:09:13;;;;;;;5.33;3.17;;;18.30;99.90;;;;;;5014154;28;20426;-69
2023/09/25 10:11:42;;;;;;;4.70;2.70;;;18.40;99.90;;;;;;5010887;28;20984;-70
2023/09/25 10:14:08;;;;;;;3.50;3.20;;;18.60;99.90;;;;;;4994255;28;20423;-70
2023/09/25 10:16:53;;;;;;;3.10;2.80;;;18.80;99.90;;;;;;4994459;28;20455;-68
2023/09/25 10:19:22;;;;;;;4.00;2.67;;;18.80;99.90;;;;;;4992662;28;20738;-70
2023/09/25 10:22:11;;;;;;;5.50;3.03;;;18.80;99.90;;;;;;4998433;28;20897;-70
2023/09/25 10:24:36;;;;;;;4.90;3.37;;;18.80;99.90;;;;;;5013940;28;20406;-70
2023/09/25 10:27:03;;;;;;;4.30;2.80;;;18.80;99.90;;;;;;5013694;28;20415;-70
2023/09/25 10:29:29;;;;;;;5.53;3.00;;;19.00;99.90;;;;;;5012616;28;20168;-70
2023/09/25 10:31:55;;;;;;;4.00;3.00;;;19.20;99.90;;;;;;5007119;28;20471;-70
2023/09/25 10:34:29;;;;;;;4.70;2.90;;;19.40;99.90;;;;;;4992993;28;20447;-70
2023/09/25 10:36:59;;;;;;;4.80;3.20;;;19.40;99.90;;;;;;4994204;28;20193;-70
2023/09/25 10:39:27;;;;;;;4.17;3.77;;;19.60;99.90;;;;;;4994777;28;20454;-69
2023/09/25 10:42:05;;;;;;;3.97;3.40;;;20.30;99.90;;;;;;4999555;28;20410;-69
2023/09/25 10:44:31;;;;;;;4.80;2.90;;;21.20;99.00;;;;;;5013603;28;20897;-69
2023/09/25 10:47:01;;;;;;;4.00;3.03;;;21.70;97.40;;;;;;5013973;28;20403;-70
2023/09/25 10:49:27;;;;;;;3.17;2.87;;;21.60;97.00;;;;;;5014638;28;20161;-69
2023/09/25 10:51:54;;;;;;;6.77;3.10;;;21.50;97.60;;;;;;5009958;28;20419;-70
2023/09/25 10:54:19;;;;;;;4.13;2.50;;;21.40;98.10;;;;;;4994581;28;20411;-69
2023/09/25 10:56:45;;;;;;;5.90;3.30;;;21.40;98.20;;;;;;4995058;28;20547;-70
2023/09/25 10:59:11;;;;;;;6.20;2.80;;;21.20;97.80;;;;;;4995002;28;20208;-69
2023/09/25 11:01:37;;;;;;;3.83;2.97;;;21.30;97.50;;;;;;4998498;28;20176;-71
2023/09/25 11:04:03;;;;;;;4.03;2.67;;;21.90;96.80;;;;;;5013377;28;20164;-69
2023/09/25 11:06:29;;;;;;;3.83;2.87;;;23.50;95.30;;;;;;5011954;28;20411;-69
2023/09/25 11:09:05;;;;;;;2.40;2.20;;;24.00;93.80;;;;;;5014231;28;20184;-70
2023/09/25 11:11:31;;;;;;;3.00;2.40;;;24.90;92.30;;;;;;5014030;28;20402;-70
2023/09/25 11:14:00;;;;;;;3.83;2.60;;;25.00;91.40;;;;;;5014537;28;20769;-70
2023/09/25 11:16:27;;;;;;;4.37;2.67;;;26.00;89.20;;;;;;4996663;28;20447;-69
2023/09/25 11:19:10;;;;;;;4.00;2.47;;;27.30;83.40;;;;;;4994380;28;20440;-69
2023/09/25 11:21:36;;;;;;;4.73;3.03;;;27.30;79.50;;;;;;4994430;28;20415;-69
2023/09/25 11:24:08;;;;;;;3.40;2.80;;;28.50;76.60;;;;;;5008972;28;20426;-70
2023/09/25 11:26:37;;;;;;;2.80;2.60;;;28.40;73.40;;;;;;4995261;28;20466;-70
2023/09/25 11:29:07;;;;;;;3.30;2.20;;;28.50;71.00;;;;;;4994291;28;20895;-70
2023/09/25 11:31:34;;;;;;;3.77;2.37;;;28.00;72.60;;;;;;4994022;28;20431;-69
2023/09/25 11:34:00;;;;;;;2.57;2.37;;;28.40;70.50;;;;;;4994052;28;20419;-71
2023/09/25 11:36:25;;;;;;;3.93;2.57;;;28.30;69.60;;;;;;5010923;28;20463;-70
2023/09/25 11:38:51;;;;;;;11.07;2.47;;;29.20;69.00;;;;;;5013660;28;20228;-70
2023/09/25 11:41:17;;;;;;;3.07;2.17;;;29.60;66.40;;;;;;5013012;28;20199;-71
2023/09/25 11:43:42;;;;;;;3.00;2.03;;;30.10;65.00;;;;;;5014153;28;20195;-70
2023/09/25 11:46:08;;;;;;;3.20;2.27;;;28.80;64.90;;;;;;4997743;28;20187;-71
2023/09/25 11:48:36;;;;;;;3.93;2.50;;;28.90;65.50;;;;;;4994337;28;20208;-70
2023/09/25 11:51:02;;;;;;;2.43;2.00;;;28.60;68.20;;;;;;4993479;28;20533;-70
2023/09/25 11:53:27;;;;;;;2.20;2.00;;;28.30;65.40;;;;;;4993574;28;20486;-69
2023/09/25 11:55:53;;;;;;;2.20;1.77;;;28.00;65.20;;;;;;5005488;28;20195;-71
2023/09/25 11:58:19;;;;;;;3.30;2.10;;;29.60;63.60;;;;;;5010018;28;20334;-70
2023/09/25 12:00:45;;;;;;;3.33;2.30;;;29.90;62.80;;;;;;5013223;28;20914;-71
2023/09/25 12:03:11;;;;;;;3.63;2.40;;;29.90;59.50;;;;;;5013299;28;20168;-70
2023/09/25 12:05:37;;;;;;;3.87;2.50;;;31.30;59.20;;;;;;5003500;28;20639;-70
2023/09/25 12:08:05;;;;;;;2.27;1.93;;;31.30;57.40;;;;;;4993494;28;20510;-70
2023/09/25 12:10:37;;;;;;;2.90;1.77;;;31.60;57.40;;;;;;4993878;28;20411;-70
2023/09/25 12:13:04;;;;;;;3.70;2.17;;;30.60;56.40;;;;;;4992038;28;20447;-70
2023/09/25 12:15:30;;;;;;;2.53;2.20;;;30.70;58.00;;;;;;5001859;28;20861;-70
2023/09/25 12:17:56;;;;;;;2.60;2.10;;;29.80;56.00;;;;;;5013096;28;20427;-71
2023/09/25 12:20:23;;;;;;;2.50;1.87;;;31.00;56.40;;;;;;5013054;28;20176;-70
2023/09/25 12:22:52;;;;;;;1.80;1.70;;;31.20;55.00;;;;;;5013204;28;20263;-70
2023/09/25 12:25:19;;;;;;;4.47;2.10;;;30.40;55.60;;;;;;5005425;28;20863;-70
2023/09/25 12:27:46;;;;;;;3.03;2.50;;;29.80;56.40;;;;;;4993618;28;20435;-69
2023/09/25 12:30:15;;;;;;;2.47;1.97;;;30.60;56.30;;;;;;4992634;28;20416;-71
2023/09/25 12:32:43;;;;;;;2.83;2.07;;;32.70;52.60;;;;;;4991315;28;20404;-71
2023/09/25 12:35:09;;;;;;;3.43;1.93;;;34.10;49.50;;;;;;4997546;28;20533;-72
2023/09/25 12:37:35;;;;;;;3.83;1.90;;;32.70;50.40;;;;;;5011938;28;20435;-69
2023/09/25 12:40:02;;;;;;;2.37;2.13;;;33.40;49.70;;;;;;5011615;28;20414;-70
2023/09/25 12:42:28;;;;;;;2.67;1.83;;;34.50;48.10;;;;;;5012118;28;20176;-70
2023/09/25 12:44:54;;;;;;;2.23;1.80;;;35.50;47.10;;;;;;5008100;28;20420;-71
2023/09/25 12:47:20;;;;;;;2.30;2.10;;;34.80;46.60;;;;;;4991815;28;20215;-70